Time;durP1;ratioP1;P1;durP2;ratioP2;P2;SDS_P1;SDS_P2;PMS_P1;PMS_P2;Temp;Humidity;BMP_temperature;BMP_pressure;BME280_temperature;BME280_humidity;BME280_pressure;Samples;Min_cycle;Max_cycle;Signal;HPM_P1;HPM_P2
2022/09/11 00:01:32;;;;;;;;;;;;;;;;;;5053399;28;20372;-63
2022/09/11 00:03:58;;;;;;;;;;;;;;;;;;5059309;28;19998;-63
2022/09/11 00:06:23;;;;;;;;;;;;;;;;;;5053404;28;19920;-63
2022/09/11 00:08:48;;;;;;;;;;;;;;;;;;5034083;28;19971;-63
2022/09/11 00:11:16;;;;;;;;;;;;;;;;;;5036357;28;19999;-63
2022/09/11 00:13:41;;;;;;;;;;;;;;;;;;5059969;28;19913;-63
2022/09/11 00:16:06;;;;;;;;;;;;;;;;;;5077396;28;19920;-63
2022/09/11 00:18:34;;;;;;;;;;;;;;;;;;5079411;28;19916;-62
2022/09/11 00:21:00;;;;;;;;;;;;;;;;;;5072156;28;20269;-62
2022/09/11 00:23:25;;;;;;;;;;;;;;;;;;5085330;28;19966;-62
2022/09/11 00:25:50;;;;;;;;;;;;;;;;;;5086509;28;19949;-62
2022/09/11 00:28:15;;;;;;;;;;;;;;;;;;5091749;28;20011;-63
2022/09/11 00:30:40;;;;;;;;;;;;;;;;;;5088126;28;20315;-63
2022/09/11 00:33:06;;;;;;;;;;;;;;;;;;5089684;28;19916;-63
2022/09/11 00:35:32;;;;;;;;;;;;;;;;;;5085765;28;20356;-63
2022/09/11 00:37:57;;;;;;;;;;;;;;;;;;5092118;28;19916;-63
2022/09/11 00:40:24;;;;;;;;;;;;;;;;;;5079900;28;19931;-63
2022/09/11 00:42:49;;;;;;;;;;;;;;;;;;5076293;28;19967;-63
2022/09/11 00:45:14;;;;;;;;;;;;;;;;;;5069359;28;19959;-63
2022/09/11 00:47:39;;;;;;;;;;;;;;;;;;5081285;28;19923;-63
2022/09/11 00:50:05;;;;;;;;;;;;;;;;;;5085451;28;19951;-63
2022/09/11 00:52:30;;;;;;;;;;;;;;;;;;5055662;28;20009;-63
2022/09/11 00:54:55;;;;;;;;;;;;;;;;;;5075743;28;19923;-63
2022/09/11 00:57:20;;;;;;;;;;;;;;;;;;5082137;28;19913;-63
2022/09/11 00:59:46;;;;;;;;;;;;;;;;;;5084470;28;19923;-64
2022/09/11 01:02:12;;;;;;;;;;;;;;;;;;5074515;28;20373;-64
2022/09/11 01:04:37;;;;;;;;;;;;;;;;;;5065545;28;19919;-63
2022/09/11 01:07:03;;;;;;;;;;;;;;;;;;5090368;28;20295;-61
2022/09/11 01:09:28;;;;;;;;;;;;;;;;;;5074158;28;20273;-63
2022/09/11 01:11:53;;;;;;;;;;;;;;;;;;5081131;28;19936;-63
2022/09/11 01:14:18;;;;;;;;;;;;;;;;;;5077192;28;20390;-62
2022/09/11 01:16:43;;;;;;;;;;;;;;;;;;5057876;28;20397;-64
2022/09/11 01:19:08;;;;;;;;;;;;;;;;;;5060532;28;19923;-64
2022/09/11 01:21:33;;;;;;;;;;;;;;;;;;5061694;28;20342;-64
2022/09/11 01:23:59;;;;;;;;;;;;;;;;;;5055992;28;20396;-63
2022/09/11 01:26:25;;;;;;;;;;;;;;;;;;5052127;28;20400;-63
2022/09/11 01:28:50;;;;;;;;;;;;;;;;;;5051319;28;20000;-63
2022/09/11 01:31:15;;;;;;;;;;;;;;;;;;5046205;28;20388;-63
2022/09/11 01:33:40;;;;;;;;;;;;;;;;;;5061298;28;20006;-64
2022/09/11 01:36:06;;;;;;;;;;;;;;;;;;5034950;28;20277;-65
2022/09/11 01:38:31;;;;;;;;;;;;;;;;;;5065225;28;19916;-64
2022/09/11 01:40:57;;;;;;;;;;;;;;;;;;5060287;28;19931;-64
2022/09/11 01:43:22;;;;;;;;;;;;;;;;;;5064902;28;19913;-64
2022/09/11 01:45:47;;;;;;;;;;;;;;;;;;5052621;28;19920;-63
2022/09/11 01:48:12;;;;;;;;;;;;;;;;;;5060509;28;19913;-63
2022/09/11 01:50:37;;;;;;;;;;;;;;;;;;5068637;28;19912;-64
2022/09/11 01:53:02;;;;;;;;;;;;;;;;;;5065084;28;19915;-65
2022/09/11 01:55:28;;;;;;;;;;;;;;;;;;5059014;28;19958;-64
2022/09/11 01:57:54;;;;;;;;;;;;;;;;;;5060627;28;20116;-64
2022/09/11 02:00:20;;;;;;;;;;;;;;;;;;5068344;28;20299;-64
2022/09/11 02:02:45;;;;;;;;;;;;;;;;;;5050613;28;20024;-62
2022/09/11 02:05:10;;;;;;;;;;;;;;;;;;5047256;28;19909;-63
2022/09/11 02:07:35;;;;;;;;;;;;;;;;;;5055591;28;19913;-63
2022/09/11 02:10:00;;;;;;;;;;;;;;;;;;5069700;28;19916;-64
2022/09/11 02:12:25;;;;;;;;;;;;;;;;;;5068633;28;19955;-63
2022/09/11 02:14:52;;;;;;;;;;;;;;;;;;5056464;28;19913;-63
2022/09/11 02:17:17;;;;;;;;;;;;;;;;;;5070873;28;19916;-64
2022/09/11 02:19:42;;;;;;;;;;;;;;;;;;5077342;28;19919;-64
2022/09/11 02:22:07;;;;;;;;;;;;;;;;;;5083901;28;20007;-63
2022/09/11 02:24:32;;;;;;;;;;;;;;;;;;5086241;28;20372;-64
2022/09/11 02:26:57;;;;;;;;;;;;;;;;;;5075842;28;19908;-63
2022/09/11 02:29:23;;;;;;;;;;;;;;;;;;5088268;28;19919;-64
2022/09/11 02:31:48;;;;;;;;;;;;;;;;;;5061565;28;20447;-63
2022/09/11 02:34:13;;;;;;;;;;;;;;;;;;5076923;28;19959;-63
2022/09/11 02:36:39;;;;;;;;;;;;;;;;;;5079586;28;19958;-64
2022/09/11 02:39:04;;;;;;;;;;;;;;;;;;5056927;28;20364;-63
2022/09/11 02:41:29;;;;;;;;;;;;;;;;;;5072343;28;19908;-64
2022/09/11 02:43:55;;;;;;;;;;;;;;;;;;5077364;28;19999;-64
2022/09/11 02:46:20;;;;;;;;;;;;;;;;;;5065705;28;19917;-64
2022/09/11 02:48:45;;;;;;;;;;;;;;;;;;5081174;28;19916;-64
2022/09/11 02:51:10;;;;;;;;;;;;;;;;;;5085438;28;19912;-64
2022/09/11 02:53:35;;;;;;;;;;;;;;;;;;5095582;28;19908;-63
2022/09/11 02:56:01;;;;;;;;;;;;;;;;;;5077119;28;19912;-63
2022/09/11 02:58:26;;;;;;;;;;;;;;;;;;5075377;28;19916;-63
2022/09/11 03:00:52;;;;;;;;;;;;;;;;;;5057994;28;19919;-63
2022/09/11 03:03:17;;;;;;;;;;;;;;;;;;5078429;28;19919;-63
2022/09/11 03:05:43;;;;;;;;;;;;;;;;;;5089772;28;19937;-63
2022/09/11 03:08:08;;;;;;;;;;;;;;;;;;5073297;28;19954;-64
2022/09/11 03:10:33;;;;;;;;;;;;;;;;;;5076458;28;20273;-63
2022/09/11 03:12:58;;;;;;;;;;;;;;;;;;5081639;28;19921;-64
2022/09/11 03:15:24;;;;;;;;;;;;;;;;;;5088700;28;20309;-63
2022/09/11 03:17:49;;;;;;;;;;;;;;;;;;5086875;28;20328;-64
2022/09/11 03:20:14;;;;;;;;;;;;;;;;;;5074847;28;19909;-63
2022/09/11 03:22:40;;;;;;;;;;;;;;;;;;5077011;28;19934;-64
2022/09/11 03:25:05;;;;;;;;;;;;;;;;;;5075850;28;19908;-63
2022/09/11 03:27:30;;;;;;;;;;;;;;;;;;5085947;28;20003;-64
2022/09/11 03:29:55;;;;;;;;;;;;;;;;;;5074687;28;20003;-64
2022/09/11 03:32:21;;;;;;;;;;;;;;;;;;5085035;28;20284;-64
2022/09/11 03:34:46;;;;;;;;;;;;;;;;;;5091051;28;20394;-63
2022/09/11 03:37:11;;;;;;;;;;;;;;;;;;5094944;28;19908;-64
2022/09/11 03:39:37;;;;;;;;;;;;;;;;;;5092983;28;19909;-63
2022/09/11 03:42:02;;;;;;;;;;;;;;;;;;5086146;28;19935;-64
2022/09/11 03:44:27;;;;;;;;;;;;;;;;;;5057236;28;19924;-63
2022/09/11 03:46:52;;;;;;;;;;;;;;;;;;5077230;28;19919;-64
2022/09/11 03:49:19;;;;;;;;;;;;;;;;;;5064189;28;20430;-63
2022/09/11 03:51:46;;;;;;;;;;;;;;;;;;5079842;28;19913;-64
2022/09/11 03:54:11;;;;;;;;;;;;;;;;;;5080059;28;19912;-64
2022/09/11 03:56:36;;;;;;;;;;;;;;;;;;5073902;28;19913;-63
2022/09/11 03:59:01;;;;;;;;;;;;;;;;;;5058552;28;19962;-63
2022/09/11 04:01:26;;;;;;;;;;;;;;;;;;5091964;28;20365;-63
2022/09/11 04:03:51;;;;;;;;;;;;;;;;;;5065645;28;19908;-64
2022/09/11 04:06:16;;;;;;;;;;;;;;;;;;5059128;28;19924;-63
2022/09/11 04:08:42;;;;;;;;;;;;;;;;;;5092546;28;19960;-63
2022/09/11 04:11:07;;;;;;;;;;;;;;;;;;5074014;28;19912;-64
2022/09/11 04:13:32;;;;;;;;;;;;;;;;;;5084562;28;19912;-64
2022/09/11 04:15:57;;;;;;;;;;;;;;;;;;5065765;28;19927;-64
2022/09/11 04:18:22;;;;;;;;;;;;;;;;;;5036472;28;19982;-64
2022/09/11 04:20:47;;;;;;;;;;;;;;;;;;5054330;28;20047;-64
2022/09/11 04:23:13;;;;;;;;;;;;;;;;;;5060603;28;19924;-64
2022/09/11 04:25:38;;;;;;;;;;;;;;;;;;5062044;28;19908;-63
2022/09/11 04:28:03;;;;;;;;;;;;;;;;;;5068648;28;19995;-62
2022/09/11 04:30:29;;;;;;;;;;;;;;;;;;5066243;28;19920;-63
2022/09/11 04:32:54;;;;;;;;;;;;;;;;;;5065523;28;19913;-63
2022/09/11 04:35:19;;;;;;;;;;;;;;;;;;5068854;28;19913;-63
2022/09/11 04:37:44;;;;;;;;;;;;;;;;;;5064575;28;20453;-63
2022/09/11 04:40:10;;;;;;;;;;;;;;;;;;5038425;28;19932;-63
2022/09/11 04:42:35;;;;;;;;;;;;;;;;;;5057484;28;19918;-63
2022/09/11 04:45:00;;;;;;;;;;;;;;;;;;5054882;28;19909;-63
2022/09/11 04:47:25;;;;;;;;;;;;;;;;;;5042581;28;19913;-63
2022/09/11 04:49:51;;;;;;;;;;;;;;;;;;5069044;28;19912;-63
2022/09/11 04:52:17;;;;;;;;;;;;;;;;;;5052082;28;19960;-63
2022/09/11 04:54:42;;;;;;;;;;;;;;;;;;5059373;28;19913;-63
2022/09/11 04:57:08;;;;;;;;;;;;;;;;;;5066426;28;19913;-63
2022/09/11 04:59:33;;;;;;;;;;;;;;;;;;5035035;28;20400;-63
2022/09/11 05:01:58;;;;;;;;;;;;;;;;;;5052692;28;20007;-62
2022/09/11 05:04:23;;;;;;;;;;;;;;;;;;5063461;28;20357;-62
2022/09/11 05:06:49;;;;;;;;;;;;;;;;;;5067836;28;19916;-63
2022/09/11 05:09:14;;;;;;;;;;;;;;;;;;5066847;28;19940;-63
2022/09/11 05:11:39;;;;;;;;;;;;;;;;;;5072834;28;19938;-63
2022/09/11 05:14:05;;;;;;;;;;;;;;;;;;5055915;28;19913;-63
2022/09/11 05:16:30;;;;;;;;;;;;;;;;;;5071491;28;20010;-64
2022/09/11 05:18:55;;;;;;;;;;;;;;;;;;5064063;28;20372;-63
2022/09/11 05:21:21;;;;;;;;;;;;;;;;;;5086542;28;19912;-63
2022/09/11 05:23:46;;;;;;;;;;;;;;;;;;5078917;28;19934;-62
2022/09/11 05:26:11;;;;;;;;;;;;;;;;;;5061054;28;20251;-63
2022/09/11 05:28:36;;;;;;;;;;;;;;;;;;5066060;28;20417;-63
2022/09/11 05:31:02;;;;;;;;;;;;;;;;;;5072780;28;19912;-64
2022/09/11 05:33:27;;;;;;;;;;;;;;;;;;5083707;28;19919;-63
2022/09/11 05:35:52;;;;;;;;;;;;;;;;;;5081909;28;19916;-62
2022/09/11 05:38:17;;;;;;;;;;;;;;;;;;5089456;28;19920;-62
2022/09/11 05:40:43;;;;;;;;;;;;;;;;;;5079176;28;20333;-63
2022/09/11 05:43:08;;;;;;;;;;;;;;;;;;5055252;28;19908;-63
2022/09/11 05:45:33;;;;;;;;;;;;;;;;;;5078646;28;19919;-64
2022/09/11 05:47:58;;;;;;;;;;;;;;;;;;5080211;28;20423;-62
2022/09/11 05:50:24;;;;;;;;;;;;;;;;;;5097686;28;20201;-64
2022/09/11 05:52:50;;;;;;;;;;;;;;;;;;5069621;28;20368;-64
2022/09/11 05:55:15;;;;;;;;;;;;;;;;;;5093558;28;20021;-63
2022/09/11 05:57:40;;;;;;;;;;;;;;;;;;5078550;28;20330;-63
2022/09/11 06:00:05;;;;;;;;;;;;;;;;;;5077623;28;20387;-63
2022/09/11 06:02:30;;;;;;;;;;;;;;;;;;5074293;28;20007;-63
2022/09/11 06:04:56;;;;;;;;;;;;;;;;;;5078019;28;20364;-63
2022/09/11 06:07:21;;;;;;;;;;;;;;;;;;5082679;28;19923;-64
2022/09/11 06:09:46;;;;;;;;;;;;;;;;;;5083502;28;19912;-63
2022/09/11 06:12:11;;;;;;;;;;;;;;;;;;5073317;28;19912;-64
2022/09/11 06:14:36;;;;;;;;;;;;;;;;;;5078158;28;19963;-63
2022/09/11 06:17:02;;;;;;;;;;;;;;;;;;5049544;28;19920;-64
2022/09/11 06:19:27;;;;;;;;;;;;;;;;;;5041656;28;19927;-63
2022/09/11 06:21:52;;;;;;;;;;;;;;;;;;5071723;28;20011;-64
2022/09/11 06:24:17;;;;;;;;;;;;;;;;;;5062555;28;20297;-63
2022/09/11 06:26:45;;;;;;;;;;;;;;;;;;5063085;28;19916;-64
2022/09/11 06:29:13;;;;;;;;;;;;;;;;;;5043949;28;20402;-64
2022/09/11 06:31:38;;;;;;;;;;;;;;;;;;5059960;28;19931;-63
2022/09/11 06:34:03;;;;;;;;;;;;;;;;;;5036859;28;19914;-63
2022/09/11 06:36:30;;;;;;;;;;;;;;;;;;5056646;28;19909;-64
2022/09/11 06:38:56;;;;;;;;;;;;;;;;;;5056435;28;20029;-64
2022/09/11 06:41:21;;;;;;;;;;;;;;;;;;5074147;28;20075;-63
2022/09/11 06:43:46;;;;;;;;;;;;;;;;;;5046920;28;19978;-64
2022/09/11 06:46:11;;;;;;;;;;;;;;;;;;5057842;28;19913;-64
2022/09/11 06:48:36;;;;;;;;;;;;;;;;;;5059838;28;20081;-63
2022/09/11 06:51:02;;;;;;;;;;;;;;;;;;5073274;28;19912;-63
2022/09/11 06:53:27;;;;;;;;;;;;;;;;;;5074416;28;19921;-63
2022/09/11 06:55:52;;;;;;;;;;;;;;;;;;5050174;28;19915;-64
2022/09/11 06:58:17;;;;;;;;;;;;;;;;;;5069187;28;19917;-63
2022/09/11 07:00:43;;;;;;;;;;;;;;;;;;5056587;28;19913;-64
2022/09/11 07:03:08;;;;;;;;;;;;;;;;;;5058044;28;19916;-63
2022/09/11 07:05:33;;;;;;;;;;;;;;;;;;5072175;28;19942;-64
2022/09/11 07:07:59;;;;;;;;;;;;;;;;;;5070873;28;19912;-64
2022/09/11 07:10:24;;;;;;;;;;;;;;;;;;5056549;28;19962;-63
2022/09/11 07:12:49;;;;;;;;;;;;;;;;;;5071444;28;19942;-64
2022/09/11 07:15:14;;;;;;;;;;;;;;;;;;5060471;28;20333;-64
2022/09/11 07:17:39;;;;;;;;;;;;;;;;;;5075265;28;20274;-64
2022/09/11 07:20:05;;;;;;;;;;;;;;;;;;5080201;28;20371;-64
2022/09/11 07:22:30;;;;;;;;;;;;;;;;;;5082477;28;19913;-64
2022/09/11 07:24:55;;;;;;;;;;;;;;;;;;5093718;28;19916;-64
2022/09/11 07:27:20;;;;;;;;;;;;;;;;;;5078803;28;19916;-63
2022/09/11 07:29:45;;;;;;;;;;;;;;;;;;5074256;28;19931;-64
2022/09/11 07:32:11;;;;;;;;;;;;;;;;;;5060464;28;19974;-63
2022/09/11 07:34:36;;;;;;;;;;;;;;;;;;5083003;28;20368;-64
2022/09/11 07:37:01;;;;;;;;;;;;;;;;;;5081853;28;19918;-64
2022/09/11 07:39:26;;;;;;;;;;;;;;;;;;5083243;28;19982;-63
2022/09/11 07:41:51;;;;;;;;;;;;;;;;;;5074568;28;19908;-63
2022/09/11 07:44:18;;;;;;;;;;;;;;;;;;5056631;28;19908;-63
2022/09/11 07:46:43;;;;;;;;;;;;;;;;;;5075413;28;20400;-63
2022/09/11 07:49:09;;;;;;;;;;;;;;;;;;5077051;28;19956;-64
2022/09/11 07:51:34;;;;;;;;;;;;;;;;;;5075356;28;20446;-63
2022/09/11 07:54:00;;;;;;;;;;;;;;;;;;5074107;28;19913;-63
2022/09/11 07:56:25;;;;;;;;;;;;;;;;;;5083480;28;20427;-63
2022/09/11 07:58:50;;;;;;;;;;;;;;;;;;5081044;28;20324;-64
2022/09/11 08:01:15;;;;;;;;;;;;;;;;;;5086150;28;19912;-64
2022/09/11 08:03:44;;;;;;;;;;;;;;;;;;5084501;28;20288;-63
2022/09/11 08:06:09;;;;;;;;;;;;;;;;;;5093096;28;19958;-63
2022/09/11 08:08:34;;;;;;;;;;;;;;;;;;5087887;28;19912;-64
2022/09/11 08:10:59;;;;;;;;;;;;;;;;;;5086086;28;19916;-65
2022/09/11 08:13:24;;;;;;;;;;;;;;;;;;5085548;28;20032;-65
2022/09/11 08:15:49;;;;;;;;;;;;;;;;;;5077097;28;20022;-64
2022/09/11 08:18:14;;;;;;;;;;;;;;;;;;5086743;28;19916;-65
2022/09/11 08:20:40;;;;;;;;;;;;;;;;;;5092911;28;19961;-64
2022/09/11 08:23:05;;;;;;;;;;;;;;;;;;5085472;28;19916;-64
2022/09/11 08:25:30;;;;;;;;;;;;;;;;;;5088318;28;19938;-63
2022/09/11 08:27:56;;;;;;;;;;;;;;;;;;5087899;28;19993;-63
2022/09/11 08:30:21;;;;;;;;;;;;;;;;;;5074174;28;19912;-63
2022/09/11 08:32:46;;;;;;;;;;;;;;;;;;5090559;28;19909;-63
2022/09/11 08:35:11;;;;;;;;;;;;;;;;;;5087378;28;19915;-64
2022/09/11 08:37:36;;;;;;;;;;;;;;;;;;5088036;28;20466;-63
2022/09/11 08:40:02;;;;;;;;;;;;;;;;;;5087831;28;19939;-64
2022/09/11 08:42:27;;;;;;;;;;;;;;;;;;5085488;28;20014;-63
2022/09/11 08:44:52;;;;;;;;;;;;;;;;;;5080533;28;19912;-63
2022/09/11 08:47:18;;;;;;;;;;;;;;;;;;5077901;28;19950;-64
2022/09/11 08:49:43;;;;;;;;;;;;;;;;;;5080942;28;20002;-65
2022/09/11 08:52:08;;;;;;;;;;;;;;;;;;5085084;28;19912;-64
2022/09/11 08:54:33;;;;;;;;;;;;;;;;;;5085706;28;19912;-65
2022/09/11 08:56:59;;;;;;;;;;;;;;;;;;5086243;28;19912;-64
2022/09/11 08:59:25;;;;;;;;;;;;;;;;;;5082456;28;19916;-65
2022/09/11 09:01:51;;;;;;;;;;;;;;;;;;5059954;28;19962;-65
2022/09/11 09:04:17;;;;;;;;;;;;;;;;;;5065874;28;19918;-62
2022/09/11 09:06:42;;;;;;;;;;;;;;;;;;5059070;28;20010;-63
2022/09/11 09:09:07;;;;;;;;;;;;;;;;;;5060733;28;20296;-62
2022/09/11 09:11:32;;;;;;;;;;;;;;;;;;5077824;28;19912;-61
2022/09/11 09:13:57;;;;;;;;;;;;;;;;;;5079647;28;19912;-62
2022/09/11 09:16:22;;;;;;;;;;;;;;;;;;5076940;28;19921;-63
2022/09/11 09:18:47;;;;;;;;;;;;;;;;;;5077697;28;20017;-62
2022/09/11 09:21:13;;;;;;;;;;;;;;;;;;5082069;28;19912;-62
2022/09/11 09:23:38;;;;;;;;;;;;;;;;;;5113173;28;19915;-62
2022/09/11 09:26:03;;;;;;;;;;;;;;;;;;5097848;28;20003;-62
2022/09/11 09:28:30;;;;;;;;;;;;;;;;;;5072361;28;19920;-60
2022/09/11 09:30:56;;;;;;;;;;;;;;;;;;5073679;28;19920;-61
2022/09/11 09:33:22;;;;;;;;;;;;;;;;;;5084709;28;19912;-61
2022/09/11 09:35:47;;;;;;;;;;;;;;;;;;5086176;28;20286;-62
2022/09/11 09:38:12;;;;;;;;;;;;;;;;;;5090974;28;19916;-62
2022/09/11 09:40:38;;;;;;;;;;;;;;;;;;5086338;28;20031;-60
2022/09/11 09:43:04;;;;;;;;;;;;;;;;;;5054575;28;19913;-62
2022/09/11 09:45:30;;;;;;;;;;;;;;;;;;5073295;28;19944;-62
2022/09/11 09:47:55;;;;;;;;;;;;;;;;;;5076961;28;19912;-62
2022/09/11 09:50:20;;;;;;;;;;;;;;;;;;5086149;28;19927;-62
2022/09/11 09:52:45;;;;;;;;;;;;;;;;;;5074565;28;19919;-62
2022/09/11 09:55:10;;;;;;;;;;;;;;;;;;5080561;28;20007;-61
2022/09/11 09:57:36;;;;;;;;;;;;;;;;;;5071371;28;19921;-62
2022/09/11 10:00:01;;;;;;;;;;;;;;;;;;5072138;28;19909;-62
2022/09/11 10:02:26;;;;;;;;;;;;;;;;;;5081775;28;20376;-62
2022/09/11 10:04:51;;;;;;;;;;;;;;;;;;5083094;28;19947;-62
2022/09/11 10:07:17;;;;;;;;;;;;;;;;;;5061935;28;19920;-62
2022/09/11 10:09:43;;;;;;;;;;;;;;;;;;5091483;28;19916;-62
2022/09/11 10:12:08;;;;;;;;;;;;;;;;;;5070361;28;20328;-62
2022/09/11 10:14:33;;;;;;;;;;;;;;;;;;5092416;28;19995;-62
2022/09/11 10:16:58;;;;;;;;;;;;;;;;;;5076319;28;20155;-62
2022/09/11 10:19:23;;;;;;;;;;;;;;;;;;5085144;28;19912;-63
2022/09/11 10:21:50;;;;;;;;;;;;;;;;;;5068844;28;19908;-61
2022/09/11 10:24:15;;;;;;;;;;;;;;;;;;5078708;28;19913;-62
2022/09/11 10:26:42;;;;;;;;;;;;;;;;;;5076508;28;19919;-61
2022/09/11 10:29:07;;;;;;;;;;;;;;;;;;5071301;28;19952;-62
2022/09/11 10:31:33;;;;;;;;;;;;;;;;;;5072157;28;19955;-62
2022/09/11 10:33:58;;;;;;;;;;;;;;;;;;5077685;28;20322;-61
2022/09/11 10:36:23;;;;;;;;;;;;;;;;;;5091345;28;19913;-62
2022/09/11 10:38:48;;;;;;;;;;;;;;;;;;5090598;28;19947;-62
2022/09/11 10:41:13;;;;;;;;;;;;;;;;;;5092039;28;19952;-62
2022/09/11 10:43:38;;;;;;;;;;;;;;;;;;5086406;28;20130;-61
2022/09/11 10:46:04;;;;;;;;;;;;;;;;;;5072450;28;19970;-61
2022/09/11 10:48:29;;;;;;;;;;;;;;;;;;5072236;28;19928;-61
2022/09/11 10:50:55;;;;;;;;;;;;;;;;;;5080081;28;19916;-62
2022/09/11 10:53:20;;;;;;;;;;;;;;;;;;5083659;28;19946;-62
2022/09/11 10:55:45;;;;;;;;;;;;;;;;;;5072428;28;19913;-62
2022/09/11 10:58:10;;;;;;;;;;;;;;;;;;5072539;28;19935;-62
2022/09/11 11:00:37;;;;;;;;;;;;;;;;;;5074843;28;19919;-61
2022/09/11 11:03:04;;;;;;;;;;;;;;;;;;5079774;28;19919;-62
2022/09/11 11:05:29;;;;;;;;;;;;;;;;;;5054517;28;19927;-62
2022/09/11 11:07:54;;;;;;;;;;;;;;;;;;5084588;28;20280;-62
2022/09/11 11:10:19;;;;;;;;;;;;;;;;;;5060670;28;20379;-61
2022/09/11 11:12:44;;;;;;;;;;;;;;;;;;5073769;28;20426;-62
2022/09/11 11:15:10;;;;;;;;;;;;;;;;;;5083429;28;20371;-60
2022/09/11 11:17:35;;;;;;;;;;;;;;;;;;5062478;28;19913;-62
2022/09/11 11:20:01;;;;;;;;;;;;;;;;;;5045700;28;19956;-62
2022/09/11 11:22:27;;;;;;;;;;;;;;;;;;5066594;28;20149;-62
2022/09/11 11:24:52;;;;;;;;;;;;;;;;;;5058721;28;19913;-62
2022/09/11 11:27:17;;;;;;;;;;;;;;;;;;5056588;28;19916;-59
2022/09/11 11:29:42;;;;;;;;;;;;;;;;;;5080439;28;19963;-62
2022/09/11 11:32:07;;;;;;;;;;;;;;;;;;5036686;28;19924;-62
2022/09/11 11:34:33;;;;;;;;;;;;;;;;;;5071231;28;20012;-62
2022/09/11 11:36:59;;;;;;;;;;;;;;;;;;5044454;28;19919;-61
2022/09/11 11:39:24;;;;;;;;;;;;;;;;;;5043852;28;19913;-63
2022/09/11 11:41:50;;;;;;;;;;;;;;;;;;5036874;28;19998;-62
2022/09/11 11:44:15;;;;;;;;;;;;;;;;;;5073841;28;19977;-63
2022/09/11 11:46:40;;;;;;;;;;;;;;;;;;5058300;28;20008;-62
2022/09/11 11:49:05;;;;;;;;;;;;;;;;;;5062093;28;19917;-62
2022/09/11 11:51:31;;;;;;;;;;;;;;;;;;5062046;28;19919;-62
2022/09/11 11:53:57;;;;;;;;;;;;;;;;;;5057329;28;19913;-63
2022/09/11 11:56:23;;;;;;;;;;;;;;;;;;5060529;28;19924;-63
2022/09/11 11:58:48;;;;;;;;;;;;;;;;;;5034774;28;19927;-62
2022/09/11 12:01:13;;;;;;;;;;;;;;;;;;5049900;28;19961;-62
2022/09/11 12:03:38;;;;;;;;;;;;;;;;;;5061221;28;19916;-70
2022/09/11 12:06:04;;;;;;;;;;;;;;;;;;5057969;28;19916;-63
2022/09/11 12:08:29;;;;;;;;;;;;;;;;;;5061238;28;19912;-63
2022/09/11 12:10:55;;;;;;;;;;;;;;;;;;5060406;28;19924;-63
2022/09/11 12:13:20;;;;;;;;;;;;;;;;;;5053945;28;19956;-65
2022/09/11 12:15:45;;;;;;;;;;;;;;;;;;5074590;28;19962;-65
2022/09/11 12:18:10;;;;;;;;;;;;;;;;;;5076774;28;19916;-66
2022/09/11 12:20:36;;;;;;;;;;;;;;;;;;5065376;28;19998;-65
2022/09/11 12:23:01;;;;;;;;;;;;;;;;;;5070453;28;19965;-66
2022/09/11 12:25:26;;;;;;;;;;;;;;;;;;5073465;28;19961;-65
2022/09/11 12:27:51;;;;;;;;;;;;;;;;;;5087960;28;19915;-65
2022/09/11 12:30:16;;;;;;;;;;;;;;;;;;5069459;28;19916;-66
2022/09/11 12:32:42;;;;;;;;;;;;;;;;;;5091754;28;19909;-65
2022/09/11 12:35:07;;;;;;;;;;;;;;;;;;5087735;28;20003;-65
2022/09/11 12:37:32;;;;;;;;;;;;;;;;;;5093310;28;19915;-65
2022/09/11 12:39:57;;;;;;;;;;;;;;;;;;5083387;28;19958;-65
2022/09/11 12:42:22;;;;;;;;;;;;;;;;;;5085470;28;19912;-65
2022/09/11 12:44:47;;;;;;;;;;;;;;;;;;5078855;28;19912;-66
2022/09/11 12:47:13;;;;;;;;;;;;;;;;;;5064592;28;19912;-65
2022/09/11 12:49:38;;;;;;;;;;;;;;;;;;5087369;28;19923;-67
2022/09/11 12:52:03;;;;;;;;;;;;;;;;;;5069492;28;20356;-66
2022/09/11 12:54:28;;;;;;;;;;;;;;;;;;5087424;28;20380;-64
2022/09/11 12:56:53;;;;;;;;;;;;;;;;;;5074719;28;19986;-66
2022/09/11 12:59:18;;;;;;;;;;;;;;;;;;5084267;28;19920;-66
2022/09/11 13:01:44;;;;;;;;;;;;;;;;;;5064933;28;19917;-65
2022/09/11 13:04:09;;;;;;;;;;;;;;;;;;5078572;28;19913;-66
2022/09/11 13:06:35;;;;;;;;;;;;;;;;;;5081981;28;20007;-65
2022/09/11 13:09:00;;;;;;;;;;;;;;;;;;5058676;28;19928;-65
2022/09/11 13:11:25;;;;;;;;;;;;;;;;;;5062823;28;19912;-66
2022/09/11 13:13:51;;;;;;;;;;;;;;;;;;5079778;28;20004;-65
2022/09/11 13:16:16;;;;;;;;;;;;;;;;;;5057065;28;19920;-65
2022/09/11 13:18:41;;;;;;;;;;;;;;;;;;5062194;28;19938;-67
2022/09/11 13:21:06;;;;;;;;;;;;;;;;;;5056472;28;19912;-64
2022/09/11 13:23:31;;;;;;;;;;;;;;;;;;5078465;28;19926;-65
2022/09/11 13:25:57;;;;;;;;;;;;;;;;;;5061200;28;19912;-64
2022/09/11 13:28:22;;;;;;;;;;;;;;;;;;5079950;28;19920;-66
2022/09/11 13:30:47;;;;;;;;;;;;;;;;;;5076959;28;19961;-66
2022/09/11 13:33:13;;;;;;;;;;;;;;;;;;5062516;28;19916;-67
2022/09/11 13:35:38;;;;;;;;;;;;;;;;;;5060584;28;20002;-66
2022/09/11 13:38:04;;;;;;;;;;;;;;;;;;5075839;28;19912;-66
2022/09/11 13:40:30;;;;;;;;;;;;;;;;;;5080784;28;19916;-66
2022/09/11 13:42:55;;;;;;;;;;;;;;;;;;5060948;28;19995;-66
2022/09/11 13:45:21;;;;;;;;;;;;;;;;;;5077166;28;20024;-66
2022/09/11 13:47:46;;;;;;;;;;;;;;;;;;5073815;28;19919;-66
2022/09/11 13:50:11;;;;;;;;;;;;;;;;;;5058838;28;20016;-66
2022/09/11 13:52:37;;;;;;;;;;;;;;;;;;5076327;28;20007;-66
2022/09/11 13:55:03;;;;;;;;;;;;;;;;;;5058776;28;19969;-65
2022/09/11 13:57:30;;;;;;;;;;;;;;;;;;5060958;28;20356;-65
2022/09/11 13:59:55;;;;;;;;;;;;;;;;;;5062757;28;20385;-65
2022/09/11 14:02:21;;;;;;;;;;;;;;;;;;5080816;28;19919;-64
2022/09/11 14:04:46;;;;;;;;;;;;;;;;;;5078684;28;20916;-66
2022/09/11 14:07:11;;;;;;;;;;;;;;;;;;5079655;28;19920;-66
2022/09/11 14:09:36;;;;;;;;;;;;;;;;;;5079035;28;19931;-66
2022/09/11 14:12:01;;;;;;;;;;;;;;;;;;5077113;28;19908;-66
2022/09/11 14:14:27;;;;;;;;;;;;;;;;;;5077911;28;20577;-66
2022/09/11 14:16:53;;;;;;;;;;;;;;;;;;5051523;28;19921;-66
2022/09/11 14:19:18;;;;;;;;;;;;;;;;;;5072611;28;19916;-65
2022/09/11 14:21:44;;;;;;;;;;;;;;;;;;5076730;28;20353;-67
2022/09/11 14:24:09;;;;;;;;;;;;;;;;;;5061274;28;19927;-65
2022/09/11 14:26:34;;;;;;;;;;;;;;;;;;5077483;28;19912;-69
2022/09/11 14:28:59;;;;;;;;;;;;;;;;;;5081838;28;19973;-64
2022/09/11 14:31:24;;;;;;;;;;;;;;;;;;5075851;28;19920;-63
2022/09/11 14:33:49;;;;;;;;;;;;;;;;;;5073389;28;20027;-63
2022/09/11 14:36:15;;;;;;;;;;;;;;;;;;5071996;28;19916;-64
2022/09/11 14:38:40;;;;;;;;;;;;;;;;;;5058040;28;19923;-67
2022/09/11 14:41:05;;;;;;;;;;;;;;;;;;5081254;28;20080;-67
2022/09/11 14:43:31;;;;;;;;;;;;;;;;;;5063311;28;19927;-66
2022/09/11 14:45:56;;;;;;;;;;;;;;;;;;5057858;28;19919;-66
2022/09/11 14:48:21;;;;;;;;;;;;;;;;;;5061885;28;19912;-65
2022/09/11 14:50:47;;;;;;;;;;;;;;;;;;5065236;28;19950;-61
2022/09/11 14:53:12;;;;;;;;;;;;;;;;;;5079006;28;19987;-64
2022/09/11 14:55:37;;;;;;;;;;;;;;;;;;5077005;28;19921;-63
2022/09/11 14:58:02;;;;;;;;;;;;;;;;;;5079935;28;19938;-64
2022/09/11 15:00:30;;;;;;;;;;;;;;;;;;5078408;28;19920;-64
2022/09/11 15:02:55;;;;;;;;;;;;;;;;;;5076103;28;19992;-64
2022/09/11 15:05:23;;;;;;;;;;;;;;;;;;5076321;28;19959;-64
2022/09/11 15:07:48;;;;;;;;;;;;;;;;;;5077893;28;20292;-63
2022/09/11 15:10:13;;;;;;;;;;;;;;;;;;5059971;28;19927;-66
2022/09/11 15:12:39;;;;;;;;;;;;;;;;;;5086882;28;19912;-65
2022/09/11 15:15:04;;;;;;;;;;;;;;;;;;5056261;28;20372;-66
2022/09/11 15:17:30;;;;;;;;;;;;;;;;;;5063322;28;19912;-65
2022/09/11 15:19:55;;;;;;;;;;;;;;;;;;5084755;28;20687;-66
2022/09/11 15:22:20;;;;;;;;;;;;;;;;;;5090604;28;19930;-66
2022/09/11 15:24:46;;;;;;;;;;;;;;;;;;5067749;28;20296;-66
2022/09/11 15:27:12;;;;;;;;;;;;;;;;;;5055199;28;20343;-65
2022/09/11 15:29:38;;;;;;;;;;;;;;;;;;5078349;28;19950;-65
2022/09/11 15:32:05;;;;;;;;;;;;;;;;;;5078175;28;19947;-66
2022/09/11 15:34:31;;;;;;;;;;;;;;;;;;5059396;28;19958;-66
2022/09/11 15:36:57;;;;;;;;;;;;;;;;;;5067944;28;20330;-65
2022/09/11 15:39:23;;;;;;;;;;;;;;;;;;5074043;28;19941;-66
2022/09/11 15:41:48;;;;;;;;;;;;;;;;;;5079796;28;19918;-66
2022/09/11 15:44:13;;;;;;;;;;;;;;;;;;5071208;28;20002;-66
2022/09/11 15:46:38;;;;;;;;;;;;;;;;;;5069767;28;20368;-67
2022/09/11 15:49:05;;;;;;;;;;;;;;;;;;5083426;28;20368;-66
2022/09/11 15:51:30;;;;;;;;;;;;;;;;;;5079857;28;19916;-66
2022/09/11 15:53:55;;;;;;;;;;;;;;;;;;5074869;28;19916;-66
2022/09/11 15:56:21;;;;;;;;;;;;;;;;;;5073484;28;20015;-66
2022/09/11 15:58:46;;;;;;;;;;;;;;;;;;5081875;28;19920;-66
2022/09/11 16:01:11;;;;;;;;;;;;;;;;;;5056238;28;19968;-66
2022/09/11 16:03:39;;;;;;;;;;;;;;;;;;5075590;28;20296;-66
2022/09/11 16:06:04;;;;;;;;;;;;;;;;;;5061104;28;19978;-65
2022/09/11 16:08:29;;;;;;;;;;;;;;;;;;5075163;28;19970;-66
2022/09/11 16:10:54;;;;;;;;;;;;;;;;;;5078020;28;20299;-65
2022/09/11 16:13:19;;;;;;;;;;;;;;;;;;5090810;28;20395;-65
2022/09/11 16:15:44;;;;;;;;;;;;;;;;;;5082510;28;20175;-65
2022/09/11 16:18:10;;;;;;;;;;;;;;;;;;5076376;28;19920;-66
2022/09/11 16:20:40;;;;;;;;;;;;;;;;;;5083128;28;19974;-66
2022/09/11 16:23:05;;;;;;;;;;;;;;;;;;5050753;28;20059;-66
2022/09/11 16:25:30;;;;;;;;;;;;;;;;;;5062765;28;20006;-66
2022/09/11 16:27:55;;;;;;;;;;;;;;;;;;5084955;28;19999;-66
2022/09/11 16:30:20;;;;;;;;;;;;;;;;;;5072630;28;19971;-66
2022/09/11 16:32:46;;;;;;;;;;;;;;;;;;5072467;28;20292;-66